createdAt,value
2023-01-26T00:00:11.222Z,77.24
2023-01-26T00:02:39.729Z,77.80
2023-01-26T00:05:09.891Z,77.69
2023-01-26T00:07:39.521Z,77.46
2023-01-26T00:10:09.084Z,77.39
2023-01-26T00:12:37.674Z,77.12
2023-01-26T00:15:09.362Z,77.30
2023-01-26T00:17:38.278Z,77.06
2023-01-26T00:20:07.147Z,76.63
2023-01-26T00:22:35.090Z,76.19
2023-01-26T00:25:03.727Z,76.00
2023-01-26T00:27:33.718Z,76.51
2023-01-26T00:30:01.908Z,77.14
2023-01-26T00:32:31.267Z,77.35
2023-01-26T00:34:59.713Z,76.96
2023-01-26T00:37:28.787Z,76.68
2023-01-26T00:39:57.158Z,76.82
2023-01-26T00:42:25.948Z,76.66
2023-01-26T00:44:53.892Z,76.25
2023-01-26T00:47:21.770Z,76.26
2023-01-26T00:49:52.762Z,76.06
2023-01-26T00:52:20.989Z,76.33
2023-01-26T00:54:49.247Z,76.50
2023-01-26T00:57:17.215Z,76.34
2023-01-26T00:59:45.198Z,76.19
2023-01-26T01:02:13.302Z,76.19
2023-01-26T01:04:41.235Z,75.94
2023-01-26T01:07:12.080Z,76.95
2023-01-26T01:09:40.052Z,77.09
2023-01-26T01:12:08.383Z,77.13
2023-01-26T01:14:36.603Z,76.91
2023-01-26T01:17:04.651Z,76.45
2023-01-26T01:19:32.604Z,76.38
2023-01-26T01:22:00.689Z,76.40
2023-01-26T01:24:30.093Z,75.98
2023-01-26T01:26:57.969Z,76.22
2023-01-26T01:29:26.208Z,76.40
2023-01-26T01:31:54.830Z,76.68
2023-01-26T01:34:27.044Z,76.35
2023-01-26T01:36:56.144Z,75.98
2023-01-26T01:39:28.233Z,76.06
2023-01-26T01:42:01.717Z,76.82
2023-01-26T01:44:30.469Z,77.21
2023-01-26T01:47:03.283Z,76.94
2023-01-26T01:49:37.964Z,76.66
2023-01-26T01:52:12.953Z,76.91
2023-01-26T01:54:45.301Z,76.79
2023-01-26T01:57:19.832Z,76.98
2023-01-26T01:59:55.525Z,77.01
2023-01-26T02:02:25.021Z,75.98
2023-01-26T02:04:57.784Z,75.68
2023-01-26T02:07:27.536Z,75.20
2023-01-26T02:10:14.577Z,75.06
2023-01-26T02:12:46.817Z,75.12
2023-01-26T02:15:15.871Z,74.97
2023-01-26T02:17:45.060Z,74.84
2023-01-26T02:20:25.064Z,75.28
2023-01-26T02:23:05.258Z,74.89
2023-01-26T02:25:42.699Z,74.90
2023-01-26T02:28:13.085Z,75.09
2023-01-26T02:30:41.210Z,74.69
2023-01-26T02:33:15.359Z,74.06
2023-01-26T02:35:44.463Z,75.01
2023-01-26T02:38:14.035Z,75.23
2023-01-26T02:40:51.820Z,75.43
2023-01-26T02:43:21.455Z,75.52
2023-01-26T02:45:49.894Z,75.15
2023-01-26T02:48:38.038Z,74.33
2023-01-26T02:51:06.503Z,74.22
2023-01-26T02:53:35.469Z,74.27
2023-01-26T02:56:02.633Z,74.19
2023-01-26T02:58:32.094Z,74.18
2023-01-26T03:01:00.541Z,74.19
2023-01-26T03:03:41.585Z,73.75
2023-01-26T03:06:13.608Z,73.54
2023-01-26T03:08:42.171Z,73.52
2023-01-26T03:11:11.019Z,73.56
2023-01-26T03:13:40.255Z,73.50
2023-01-26T03:16:11.826Z,73.47
2023-01-26T03:18:57.287Z,73.71
2023-01-26T03:21:42.782Z,73.99
2023-01-26T03:24:40.569Z,74.26
2023-01-26T03:27:29.577Z,74.05
2023-01-26T03:30:06.300Z,73.67
2023-01-26T03:32:34.820Z,73.54
2023-01-26T03:35:07.181Z,73.78
2023-01-26T03:37:37.232Z,73.66
2023-01-26T03:40:32.963Z,73.77
2023-01-26T03:43:26.150Z,73.91
2023-01-26T03:46:13.531Z,73.71
2023-01-26T03:48:59.203Z,74.00
2023-01-26T03:51:44.797Z,74.06
2023-01-26T03:54:30.499Z,73.82
2023-01-26T03:56:59.082Z,73.29
2023-01-26T03:59:39.087Z,73.15
2023-01-26T04:02:37.280Z,73.27
2023-01-26T04:05:24.993Z,73.45
2023-01-26T04:08:20.649Z,73.53
2023-01-26T04:10:49.063Z,73.42
2023-01-26T04:13:34.372Z,73.33
2023-01-26T04:16:26.734Z,73.47
2023-01-26T04:19:13.935Z,73.37
2023-01-26T04:21:42.247Z,73.21
2023-01-26T04:24:22.686Z,73.34
2023-01-26T04:26:55.579Z,73.43
2023-01-26T04:29:27.753Z,73.41
2023-01-26T04:31:56.553Z,73.40
2023-01-26T04:34:26.440Z,73.36
2023-01-26T04:36:54.824Z,73.63
2023-01-26T04:39:25.837Z,73.32
2023-01-26T04:41:57.025Z,73.56
2023-01-26T04:44:26.362Z,73.08
2023-01-26T04:46:54.485Z,73.26
2023-01-26T04:49:23.406Z,73.82
2023-01-26T04:51:52.919Z,73.92
2023-01-26T04:54:21.146Z,73.88
2023-01-26T04:56:49.286Z,73.69
2023-01-26T04:59:17.295Z,73.80
2023-01-26T05:01:45.504Z,73.85
2023-01-26T05:04:13.874Z,73.93
2023-01-26T05:06:45.248Z,73.56
2023-01-26T05:09:14.665Z,73.80
2023-01-26T05:11:44.854Z,73.68
2023-01-26T05:14:31.193Z,73.54
2023-01-26T05:17:05.186Z,73.33
2023-01-26T05:20:02.718Z,73.33
2023-01-26T05:22:33.884Z,73.33
2023-01-26T05:25:26.900Z,73.79
2023-01-26T05:28:03.567Z,74.22
2023-01-26T05:30:32.080Z,74.63
2023-01-26T05:33:03.463Z,74.71
2023-01-26T05:35:32.661Z,75.34
2023-01-26T05:38:01.203Z,75.19
2023-01-26T05:40:33.439Z,75.60
2023-01-26T05:43:01.707Z,75.60
2023-01-26T05:45:59.699Z,75.53
2023-01-26T05:48:27.749Z,75.68
2023-01-26T05:50:57.765Z,76.05
2023-01-26T05:53:26.983Z,76.07
2023-01-26T05:55:57.283Z,75.92
2023-01-26T05:58:27.886Z,75.92
2023-01-26T06:00:57.131Z,76.25
2023-01-26T06:03:30.736Z,76.29
2023-01-26T06:05:58.883Z,76.83
2023-01-26T06:08:39.272Z,76.63
2023-01-26T06:11:27.124Z,76.88
2023-01-26T06:14:21.079Z,76.90
2023-01-26T06:16:49.500Z,77.02
2023-01-26T06:19:17.686Z,77.52
2023-01-26T06:21:50.932Z,77.75
2023-01-26T06:24:19.043Z,77.82
2023-01-26T06:26:49.848Z,77.76
2023-01-26T06:29:19.241Z,77.56
2023-01-26T06:31:47.197Z,77.62
2023-01-26T06:34:15.350Z,77.67
2023-01-26T06:36:44.421Z,77.53
2023-01-26T06:39:19.683Z,77.70
2023-01-26T06:41:50.010Z,77.75
2023-01-26T06:44:18.437Z,77.81
2023-01-26T06:46:47.122Z,77.63
2023-01-26T06:49:16.657Z,77.82
2023-01-26T06:51:48.828Z,77.62
2023-01-26T06:54:18.056Z,77.87
2023-01-26T06:57:04.556Z,77.66
2023-01-26T07:00:06.388Z,77.27
2023-01-26T07:02:57.376Z,77.22
2023-01-26T07:05:25.587Z,77.18
2023-01-26T07:07:54.075Z,77.32
2023-01-26T07:10:23.185Z,77.18
2023-01-26T07:12:53.355Z,77.05
2023-01-26T07:15:21.998Z,77.11
2023-01-26T07:17:50.493Z,77.32
2023-01-26T07:20:19.375Z,77.29
2023-01-26T07:22:47.729Z,77.36
2023-01-26T07:25:15.899Z,76.75
2023-01-26T07:27:43.893Z,77.00
2023-01-26T07:30:15.512Z,76.91
2023-01-26T07:32:43.712Z,76.81
2023-01-26T07:35:11.977Z,76.73
2023-01-26T07:37:40.301Z,76.87
2023-01-26T07:40:10.671Z,77.10
2023-01-26T07:42:38.967Z,76.62
2023-01-26T07:45:21.908Z,76.81
2023-01-26T07:47:50.447Z,76.95
2023-01-26T07:50:21.187Z,76.73
2023-01-26T07:52:49.774Z,76.47
2023-01-26T07:55:20.450Z,76.26
2023-01-26T07:57:49.409Z,76.06
2023-01-26T08:00:21.467Z,76.00
2023-01-26T08:02:51.180Z,76.08
2023-01-26T08:05:19.300Z,75.92
2023-01-26T08:07:47.411Z,76.14
2023-01-26T08:10:15.832Z,75.59
2023-01-26T08:12:43.844Z,75.62
2023-01-26T08:15:14.121Z,75.89
2023-01-26T08:17:43.759Z,75.62
2023-01-26T08:20:14.454Z,75.71
2023-01-26T08:22:42.670Z,75.83
2023-01-26T08:25:11.925Z,75.41
2023-01-26T08:27:40.224Z,75.40
2023-01-26T08:30:11.339Z,75.56
2023-01-26T08:32:39.960Z,75.30
2023-01-26T08:35:10.628Z,75.58
2023-01-26T08:37:38.851Z,75.38
2023-01-26T08:40:09.310Z,75.54
2023-01-26T08:42:37.500Z,75.81
2023-01-26T08:45:06.225Z,75.67
2023-01-26T08:47:34.461Z,75.82
2023-01-26T08:50:02.616Z,75.61
2023-01-26T08:52:32.887Z,75.60
2023-01-26T08:55:01.178Z,75.94
2023-01-26T08:57:29.546Z,75.71
2023-01-26T08:59:57.849Z,75.40
2023-01-26T09:02:26.252Z,75.71
2023-01-26T09:04:54.341Z,75.59
2023-01-26T09:07:22.461Z,75.80
2023-01-26T09:09:51.962Z,75.82
2023-01-26T09:12:19.868Z,75.78
2023-01-26T09:14:47.894Z,75.93
2023-01-26T09:17:16.076Z,76.21
2023-01-26T09:19:44.996Z,76.53
2023-01-26T09:22:13.111Z,76.38
2023-01-26T09:24:41.222Z,76.45
2023-01-26T09:27:10.547Z,76.23
2023-01-26T09:29:38.370Z,76.24
2023-01-26T09:32:06.943Z,76.39
2023-01-26T09:34:35.764Z,76.60
2023-01-26T09:37:04.137Z,76.22
2023-01-26T09:39:32.107Z,76.45
2023-01-26T09:42:13.480Z,76.56
2023-01-26T09:44:49.506Z,76.73
2023-01-26T09:47:27.135Z,76.43
2023-01-26T09:50:00.930Z,76.53
2023-01-26T09:52:34.383Z,76.74
2023-01-26T09:55:06.254Z,76.62
2023-01-26T09:57:39.306Z,76.79
2023-01-26T10:00:19.232Z,77.11
2023-01-26T10:02:58.032Z,76.89
2023-01-26T10:05:33.908Z,77.07
2023-01-26T10:08:13.784Z,77.15
2023-01-26T10:10:46.962Z,76.89
2023-01-26T10:13:17.729Z,77.23
2023-01-26T10:15:52.788Z,77.25
2023-01-26T10:18:25.133Z,77.14
2023-01-26T10:20:57.072Z,77.19
2023-01-26T10:23:29.056Z,77.20
2023-01-26T10:26:05.958Z,77.38
2023-01-26T10:28:36.720Z,77.38
2023-01-26T10:31:13.568Z,77.27
2023-01-26T10:33:49.866Z,77.30
2023-01-26T10:36:18.147Z,77.11
2023-01-26T10:38:47.102Z,77.22
2023-01-26T10:41:27.500Z,77.04
2023-01-26T10:43:57.893Z,76.80
2023-01-26T10:46:33.336Z,76.91
2023-01-26T10:49:04.452Z,77.10
2023-01-26T10:51:34.494Z,76.82
2023-01-26T10:54:20.356Z,76.79
2023-01-26T10:56:52.037Z,76.77
2023-01-26T10:59:30.837Z,76.29
2023-01-26T11:02:03.069Z,76.67
2023-01-26T11:04:32.019Z,75.78
2023-01-26T11:07:26.452Z,75.77
2023-01-26T11:09:54.970Z,75.07
2023-01-26T11:12:26.607Z,74.92
2023-01-26T11:15:04.223Z,74.71
2023-01-26T11:17:39.461Z,74.58
2023-01-26T11:20:27.928Z,73.96
2023-01-26T11:23:05.790Z,73.87
2023-01-26T11:25:41.904Z,74.15
2023-01-26T11:28:25.763Z,72.74
2023-01-26T11:31:01.739Z,71.70
2023-01-26T11:33:39.033Z,71.39
2023-01-26T11:36:17.096Z,70.03
2023-01-26T11:38:51.689Z,69.43
2023-01-26T11:41:38.300Z,68.98
2023-01-26T11:44:35.435Z,68.54
2023-01-26T11:47:16.014Z,69.20
2023-01-26T11:50:03.778Z,69.46
2023-01-26T11:52:43.220Z,69.66
2023-01-26T11:55:29.913Z,69.94
2023-01-26T11:58:15.230Z,70.63
2023-01-26T12:00:49.467Z,70.59
2023-01-26T12:03:26.306Z,71.44
2023-01-26T12:06:00.369Z,71.65
2023-01-26T12:08:38.305Z,72.08
2023-01-26T12:11:25.770Z,72.21
2023-01-26T12:14:13.893Z,72.21
2023-01-26T12:16:52.485Z,72.93
2023-01-26T12:19:37.814Z,73.39
2023-01-26T12:22:16.018Z,72.78
2023-01-26T12:25:16.164Z,72.47
2023-01-26T12:27:45.620Z,72.81
2023-01-26T12:30:28.554Z,73.18
2023-01-26T12:32:57.713Z,72.86
2023-01-26T12:35:40.362Z,72.55
2023-01-26T12:38:18.449Z,72.39
2023-01-26T12:40:58.902Z,71.77
2023-01-26T12:43:46.113Z,71.51
2023-01-26T12:46:15.816Z,71.25
2023-01-26T12:48:48.493Z,70.82
2023-01-26T12:51:24.259Z,70.23
2023-01-26T12:53:59.728Z,70.54
2023-01-26T12:56:34.176Z,70.33
2023-01-26T12:59:14.818Z,70.33
2023-01-26T13:02:10.276Z,69.91
2023-01-26T13:04:38.620Z,69.99
2023-01-26T13:07:29.039Z,69.77
2023-01-26T13:10:23.473Z,69.91
2023-01-26T13:12:54.600Z,69.74
2023-01-26T13:15:26.373Z,69.39
2023-01-26T13:17:57.388Z,68.83
2023-01-26T13:20:46.240Z,68.88
2023-01-26T13:23:40.657Z,69.06
2023-01-26T13:26:50.769Z,69.10
2023-01-26T13:29:35.642Z,69.11
2023-01-26T13:32:37.259Z,69.64
2023-01-26T13:35:14.934Z,69.61
2023-01-26T13:37:51.126Z,69.65
2023-01-26T13:40:24.847Z,69.99
2023-01-26T13:43:01.626Z,70.14
2023-01-26T13:45:36.722Z,70.33
2023-01-26T13:48:12.658Z,69.84
2023-01-26T13:50:42.343Z,69.74
2023-01-26T13:53:33.920Z,70.27
2023-01-26T13:56:05.314Z,69.20
2023-01-26T13:58:34.754Z,69.78
2023-01-26T14:01:08.301Z,69.37
2023-01-26T14:03:36.703Z,68.55
2023-01-26T14:06:10.878Z,68.41
2023-01-26T14:08:40.964Z,68.38
2023-01-26T14:11:19.328Z,67.88
2023-01-26T14:13:51.571Z,67.58
2023-01-26T14:16:27.755Z,67.11
2023-01-26T14:19:07.380Z,66.83
2023-01-26T14:21:47.513Z,66.13
2023-01-26T14:24:15.990Z,65.52
2023-01-26T14:26:44.594Z,65.89
2023-01-26T14:29:14.357Z,65.63
2023-01-26T14:31:44.611Z,66.24
2023-01-26T14:34:12.566Z,65.77
2023-01-26T14:36:40.654Z,66.26
2023-01-26T14:39:18.340Z,66.74
2023-01-26T14:41:47.575Z,67.18
2023-01-26T14:44:16.062Z,67.85
2023-01-26T14:46:57.727Z,67.88
2023-01-26T14:49:42.820Z,67.16
2023-01-26T14:52:22.427Z,67.33
2023-01-26T14:54:51.523Z,67.14
2023-01-26T14:57:23.807Z,67.02
2023-01-26T14:59:53.811Z,66.97
2023-01-26T15:02:26.045Z,66.76
2023-01-26T15:04:58.635Z,66.46
2023-01-26T15:07:40.002Z,66.96
2023-01-26T15:10:33.970Z,66.77
2023-01-26T15:13:07.006Z,66.59
2023-01-26T15:15:38.426Z,67.17
2023-01-26T15:18:19.363Z,67.45
2023-01-26T15:21:00.212Z,67.34
2023-01-26T15:23:31.180Z,67.70
2023-01-26T15:26:07.529Z,67.42
2023-01-26T15:28:36.594Z,67.56
2023-01-26T15:31:05.896Z,67.96
2023-01-26T15:33:58.887Z,67.92
2023-01-26T15:36:33.316Z,68.05
2023-01-26T15:39:05.973Z,68.26
2023-01-26T15:41:33.966Z,68.36
2023-01-26T15:44:02.101Z,68.93
2023-01-26T15:46:30.780Z,68.85
2023-01-26T15:49:00.118Z,68.65
2023-01-26T15:51:28.176Z,68.65
2023-01-26T15:53:56.676Z,68.75
2023-01-26T15:56:25.596Z,68.82
2023-01-26T15:58:54.111Z,69.28
2023-01-26T16:01:23.805Z,68.93
2023-01-26T16:03:52.478Z,68.34
2023-01-26T16:06:24.965Z,68.49
2023-01-26T16:08:53.871Z,67.85
2023-01-26T16:11:24.282Z,67.49
2023-01-26T16:14:02.925Z,67.51
2023-01-26T16:16:33.465Z,67.59
2023-01-26T16:19:01.584Z,67.15
2023-01-26T16:21:35.069Z,67.18
2023-01-26T16:24:04.836Z,66.98
2023-01-26T16:26:34.077Z,66.96
2023-01-26T16:29:02.257Z,67.02
2023-01-26T16:31:33.416Z,67.12
2023-01-26T16:34:02.299Z,67.10
2023-01-26T16:36:31.956Z,66.81
2023-01-26T16:39:00.391Z,66.85
2023-01-26T16:41:30.672Z,67.20
2023-01-26T16:44:00.737Z,66.60
2023-01-26T16:46:30.964Z,66.59
2023-01-26T16:48:59.935Z,66.75
2023-01-26T16:51:32.153Z,67.03
2023-01-26T16:54:00.571Z,66.79
2023-01-26T16:56:29.421Z,66.78
2023-01-26T16:58:57.525Z,66.75
2023-01-26T17:01:28.286Z,66.70
2023-01-26T17:03:57.059Z,67.08
2023-01-26T17:06:25.632Z,66.47
2023-01-26T17:08:55.120Z,66.41
2023-01-26T17:11:27.818Z,66.88
2023-01-26T17:13:57.130Z,66.75
2023-01-26T17:16:27.038Z,67.38
2023-01-26T17:18:55.043Z,67.35
2023-01-26T17:21:23.755Z,67.19
2023-01-26T17:23:53.190Z,66.82
2023-01-26T17:26:23.780Z,66.94
2023-01-26T17:28:55.632Z,67.02
2023-01-26T17:31:25.451Z,67.17
2023-01-26T17:33:53.736Z,67.07
2023-01-26T17:36:22.418Z,67.50
2023-01-26T17:38:51.144Z,67.50
2023-01-26T17:41:19.190Z,67.15
2023-01-26T17:43:49.144Z,66.92
2023-01-26T17:46:19.060Z,67.47
2023-01-26T17:48:47.907Z,67.00
2023-01-26T17:51:18.262Z,67.30
2023-01-26T17:53:49.584Z,67.13
2023-01-26T17:56:19.812Z,67.24
2023-01-26T17:58:51.601Z,67.28
2023-01-26T18:01:20.781Z,66.88
2023-01-26T18:03:49.507Z,67.30
2023-01-26T18:06:17.766Z,67.04
2023-01-26T18:08:46.199Z,67.18
2023-01-26T18:11:16.804Z,67.29
2023-01-26T18:13:45.566Z,67.01
2023-01-26T18:16:17.540Z,67.42
2023-01-26T18:18:46.181Z,67.47
2023-01-26T18:21:16.938Z,67.35
2023-01-26T18:23:47.254Z,67.06
2023-01-26T18:26:17.083Z,67.43
2023-01-26T18:28:46.738Z,67.72
2023-01-26T18:31:18.574Z,67.42
2023-01-26T18:33:47.077Z,67.63
2023-01-26T18:36:17.490Z,67.58
2023-01-26T18:38:50.547Z,67.45
2023-01-26T18:41:19.234Z,67.28
2023-01-26T18:43:48.775Z,67.10
2023-01-26T18:46:19.830Z,67.46
2023-01-26T18:48:48.275Z,67.38
2023-01-26T18:51:18.390Z,66.95
2023-01-26T18:53:46.628Z,67.14
2023-01-26T18:56:17.746Z,66.79
2023-01-26T18:58:46.221Z,67.01
2023-01-26T19:01:18.788Z,66.77
2023-01-26T19:03:54.089Z,66.82
2023-01-26T19:06:23.793Z,66.30
2023-01-26T19:08:58.487Z,66.08
2023-01-26T19:11:28.606Z,66.24
2023-01-26T19:13:56.720Z,65.90
2023-01-26T19:16:25.097Z,66.15
2023-01-26T19:18:55.612Z,66.01
2023-01-26T19:21:25.343Z,66.08
2023-01-26T19:23:55.624Z,65.82
2023-01-26T19:26:26.329Z,65.89
2023-01-26T19:28:55.011Z,65.80
2023-01-26T19:31:24.566Z,66.25
2023-01-26T19:33:55.400Z,66.17
2023-01-26T19:36:24.587Z,66.35
2023-01-26T19:38:52.916Z,66.46
2023-01-26T19:41:22.777Z,66.05
2023-01-26T19:43:51.328Z,66.00
2023-01-26T19:46:20.871Z,66.27
2023-01-26T19:48:48.895Z,66.05
2023-01-26T19:51:19.802Z,66.34
2023-01-26T19:53:50.022Z,66.44
2023-01-26T19:56:21.125Z,66.21
2023-01-26T19:58:51.200Z,66.53
2023-01-26T20:01:19.825Z,66.30
2023-01-26T20:03:51.604Z,66.73
2023-01-26T20:06:23.454Z,66.41
2023-01-26T20:08:52.280Z,66.98
2023-01-26T20:11:25.122Z,66.77
2023-01-26T20:13:55.841Z,66.66
2023-01-26T20:16:28.304Z,66.97
2023-01-26T20:18:57.268Z,66.81
2023-01-26T20:21:27.464Z,67.01
2023-01-26T20:23:56.264Z,67.08
2023-01-26T20:26:26.970Z,67.20
2023-01-26T20:28:58.144Z,67.20
2023-01-26T20:31:27.663Z,67.05
2023-01-26T20:33:56.300Z,67.24
2023-01-26T20:36:28.276Z,68.00
2023-01-26T20:38:57.346Z,67.89
2023-01-26T20:41:27.620Z,67.35
2023-01-26T20:44:00.385Z,67.51
2023-01-26T20:46:29.844Z,67.88
2023-01-26T20:48:59.431Z,68.10
2023-01-26T20:51:31.304Z,68.38
2023-01-26T20:53:59.519Z,67.84
2023-01-26T20:56:27.844Z,68.34
2023-01-26T20:58:57.700Z,68.86
2023-01-26T21:01:28.201Z,68.77
2023-01-26T21:03:56.571Z,68.87
2023-01-26T21:06:26.197Z,68.65
2023-01-26T21:08:58.252Z,69.07
2023-01-26T21:11:27.705Z,68.93
2023-01-26T21:13:57.074Z,68.97
2023-01-26T21:16:26.470Z,68.67
2023-01-26T21:18:54.987Z,69.03
2023-01-26T21:21:23.803Z,69.29
2023-01-26T21:23:52.824Z,69.03
2023-01-26T21:26:23.767Z,68.81
2023-01-26T21:28:52.656Z,68.58
2023-01-26T21:31:22.093Z,68.31
2023-01-26T21:33:51.998Z,69.06
2023-01-26T21:36:22.002Z,68.70
2023-01-26T21:38:52.156Z,68.34
2023-01-26T21:41:40.440Z,68.46
2023-01-26T21:44:11.669Z,67.79
2023-01-26T21:46:40.952Z,67.76
2023-01-26T21:49:09.427Z,67.83
2023-01-26T21:51:55.424Z,67.66
2023-01-26T21:54:23.669Z,66.83
2023-01-26T21:56:53.174Z,67.25
2023-01-26T21:59:20.153Z,66.60
2023-01-26T22:01:49.620Z,66.40
2023-01-26T22:04:19.574Z,66.17
2023-01-26T22:06:47.755Z,66.35
2023-01-26T22:09:17.957Z,66.19
2023-01-26T22:11:46.144Z,66.86
2023-01-26T22:14:20.743Z,66.60
2023-01-26T22:16:52.686Z,66.39
2023-01-26T22:19:22.633Z,66.23
2023-01-26T22:21:51.021Z,66.67
2023-01-26T22:24:19.082Z,66.99
2023-01-26T22:26:47.539Z,66.67
2023-01-26T22:29:16.881Z,66.53
2023-01-26T22:31:44.790Z,66.90
2023-01-26T22:34:13.392Z,66.36
2023-01-26T22:36:41.421Z,66.03
2023-01-26T22:39:10.201Z,66.13
2023-01-26T22:41:38.366Z,65.65
2023-01-26T22:44:06.489Z,65.78
2023-01-26T22:46:36.827Z,66.75
2023-01-26T22:49:05.982Z,65.83
2023-01-26T22:51:37.100Z,66.02
2023-01-26T22:54:06.510Z,66.15
2023-01-26T22:56:34.604Z,65.89
2023-01-26T22:59:02.895Z,65.55
2023-01-26T23:01:33.237Z,65.12
2023-01-26T23:04:03.316Z,65.16
2023-01-26T23:06:31.384Z,65.09
2023-01-26T23:09:01.134Z,65.31
2023-01-26T23:11:30.167Z,65.10
2023-01-26T23:14:00.432Z,65.42
2023-01-26T23:16:29.184Z,65.58
2023-01-26T23:18:59.805Z,65.64
2023-01-26T23:21:30.809Z,65.67
2023-01-26T23:23:59.316Z,65.15
2023-01-26T23:26:27.837Z,65.00
2023-01-26T23:28:55.771Z,65.64
2023-01-26T23:31:23.884Z,65.60
2023-01-26T23:33:52.300Z,65.94
2023-01-26T23:36:20.601Z,66.06
2023-01-26T23:38:50.871Z,66.25
2023-01-26T23:41:19.517Z,66.46
2023-01-26T23:43:47.581Z,66.86
2023-01-26T23:46:15.999Z,66.74
2023-01-26T23:48:44.056Z,66.28
2023-01-26T23:51:13.508Z,66.58
2023-01-26T23:53:42.018Z,66.40
2023-01-26T23:56:14.636Z,66.23
2023-01-26T23:58:42.900Z,66.43
